sensor_id;sensor_type;location;lat;lon;timestamp;temperature;humidity
15131;DHT22;7666;50.920;4.628;2023-07-29T00:01:04;19.80;99.90
15131;DHT22;7666;50.920;4.628;2023-07-29T00:03:50;19.80;99.90
15131;DHT22;7666;50.920;4.628;2023-07-29T00:06:36;19.80;99.90
15131;DHT22;7666;50.920;4.628;2023-07-29T00:09:22;19.70;99.90
15131;DHT22;7666;50.920;4.628;2023-07-29T00:12:08;19.70;99.90
15131;DHT22;7666;50.920;4.628;2023-07-29T00:14:54;19.70;99.90
15131;DHT22;7666;50.920;4.628;2023-07-29T00:17:40;19.60;99.90
15131;DHT22;7666;50.920;4.628;2023-07-29T00:20:26;19.60;99.90
15131;DHT22;7666;50.920;4.628;2023-07-29T00:23:12;19.50;99.90
15131;DHT22;7666;50.920;4.628;2023-07-29T00:25:58;19.50;99.90
15131;DHT22;7666;50.920;4.628;2023-07-29T00:28:44;19.40;99.90
15131;DHT22;7666;50.920;4.628;2023-07-29T00:31:30;19.40;99.90
15131;DHT22;7666;50.920;4.628;2023-07-29T00:34:16;19.30;99.90
15131;DHT22;7666;50.920;4.628;2023-07-29T00:37:05;19.30;99.90
15131;DHT22;7666;50.920;4.628;2023-07-29T00:39:51;19.20;99.90
15131;DHT22;7666;50.920;4.628;2023-07-29T00:42:37;19.00;99.90
15131;DHT22;7666;50.920;4.628;2023-07-29T00:45:25;19.00;99.90
15131;DHT22;7666;50.920;4.628;2023-07-29T00:48:12;19.00;99.90
15131;DHT22;7666;50.920;4.628;2023-07-29T00:50:58;18.90;99.90
15131;DHT22;7666;50.920;4.628;2023-07-29T00:53:44;18.90;99.90
15131;DHT22;7666;50.920;4.628;2023-07-29T00:56:30;18.80;99.90
15131;DHT22;7666;50.920;4.628;2023-07-29T00:59:16;18.80;99.90
15131;DHT22;7666;50.920;4.628;2023-07-29T01:02:03;18.80;99.90
15131;DHT22;7666;50.920;4.628;2023-07-29T01:04:56;18.70;99.90
15131;DHT22;7666;50.920;4.628;2023-07-29T01:07:57;18.60;99.90
15131;DHT22;7666;50.920;4.628;2023-07-29T01:10:52;18.60;99.90
15131;DHT22;7666;50.920;4.628;2023-07-29T01:13:48;18.60;99.90
15131;DHT22;7666;50.920;4.628;2023-07-29T01:16:42;18.60;99.90
15131;DHT22;7666;50.920;4.628;2023-07-29T01:19:42;18.50;99.90
15131;DHT22;7666;50.920;4.628;2023-07-29T01:22:30;18.50;99.90
15131;DHT22;7666;50.920;4.628;2023-07-29T01:25:17;18.50;99.90
15131;DHT22;7666;50.920;4.628;2023-07-29T01:28:03;18.50;99.90
15131;DHT22;7666;50.920;4.628;2023-07-29T01:30:51;18.40;99.90
15131;DHT22;7666;50.920;4.628;2023-07-29T01:34:06;18.40;99.90
15131;DHT22;7666;50.920;4.628;2023-07-29T01:36:54;18.40;99.90
15131;DHT22;7666;50.920;4.628;2023-07-29T01:39:45;18.40;99.90
15131;DHT22;7666;50.920;4.628;2023-07-29T01:42:32;18.40;99.90
15131;DHT22;7666;50.920;4.628;2023-07-29T01:45:18;18.30;99.90
15131;DHT22;7666;50.920;4.628;2023-07-29T01:48:07;18.30;99.90
15131;DHT22;7666;50.920;4.628;2023-07-29T01:50:53;18.30;99.90
15131;DHT22;7666;50.920;4.628;2023-07-29T01:53:39;18.30;99.90
15131;DHT22;7666;50.920;4.628;2023-07-29T01:56:25;18.30;99.90
15131;DHT22;7666;50.920;4.628;2023-07-29T01:59:11;18.30;99.90
15131;DHT22;7666;50.920;4.628;2023-07-29T02:01:59;18.30;99.90
15131;DHT22;7666;50.920;4.628;2023-07-29T02:04:45;18.30;99.90
15131;DHT22;7666;50.920;4.628;2023-07-29T02:07:36;18.20;99.90
15131;DHT22;7666;50.920;4.628;2023-07-29T02:10:22;18.30;99.90
15131;DHT22;7666;50.920;4.628;2023-07-29T02:13:08;18.20;99.90
15131;DHT22;7666;50.920;4.628;2023-07-29T02:15:54;18.20;99.90
15131;DHT22;7666;50.920;4.628;2023-07-29T02:18:40;18.20;99.90
15131;DHT22;7666;50.920;4.628;2023-07-29T02:21:26;18.20;99.90
15131;DHT22;7666;50.920;4.628;2023-07-29T02:24:12;18.20;99.90
15131;DHT22;7666;50.920;4.628;2023-07-29T02:26:58;18.10;99.90
15131;DHT22;7666;50.920;4.628;2023-07-29T02:29:44;18.10;99.90
15131;DHT22;7666;50.920;4.628;2023-07-29T02:32:30;18.10;99.90
15131;DHT22;7666;50.920;4.628;2023-07-29T02:35:16;18.00;99.90
15131;DHT22;7666;50.920;4.628;2023-07-29T02:38:02;18.00;99.90
15131;DHT22;7666;50.920;4.628;2023-07-29T02:40:48;18.00;99.90
15131;DHT22;7666;50.920;4.628;2023-07-29T02:43:34;18.00;99.90
15131;DHT22;7666;50.920;4.628;2023-07-29T02:46:20;17.90;99.90
15131;DHT22;7666;50.920;4.628;2023-07-29T02:49:06;17.90;99.90
15131;DHT22;7666;50.920;4.628;2023-07-29T02:51:52;17.90;99.90
15131;DHT22;7666;50.920;4.628;2023-07-29T02:54:37;17.80;99.90
15131;DHT22;7666;50.920;4.628;2023-07-29T02:57:23;17.80;99.90
15131;DHT22;7666;50.920;4.628;2023-07-29T03:00:10;17.80;99.90
15131;DHT22;7666;50.920;4.628;2023-07-29T03:02:56;17.80;99.90
15131;DHT22;7666;50.920;4.628;2023-07-29T03:05:42;17.80;99.90
15131;DHT22;7666;50.920;4.628;2023-07-29T03:08:28;17.80;99.90
15131;DHT22;7666;50.920;4.628;2023-07-29T03:11:15;17.80;99.90
15131;DHT22;7666;50.920;4.628;2023-07-29T03:14:01;17.80;99.90
15131;DHT22;7666;50.920;4.628;2023-07-29T03:16:47;17.70;99.90
15131;DHT22;7666;50.920;4.628;2023-07-29T03:19:33;17.70;99.90
15131;DHT22;7666;50.920;4.628;2023-07-29T03:22:19;17.70;99.90
15131;DHT22;7666;50.920;4.628;2023-07-29T03:25:05;17.70;99.90
15131;DHT22;7666;50.920;4.628;2023-07-29T03:27:51;17.70;99.90
15131;DHT22;7666;50.920;4.628;2023-07-29T03:30:37;17.70;99.90
15131;DHT22;7666;50.920;4.628;2023-07-29T03:33:25;17.70;99.90
15131;DHT22;7666;50.920;4.628;2023-07-29T03:36:11;17.70;99.90
15131;DHT22;7666;50.920;4.628;2023-07-29T03:38:57;17.70;99.90
15131;DHT22;7666;50.920;4.628;2023-07-29T03:41:44;17.60;99.90
15131;DHT22;7666;50.920;4.628;2023-07-29T03:44:30;17.60;99.90
15131;DHT22;7666;50.920;4.628;2023-07-29T03:47:16;17.60;99.90
15131;DHT22;7666;50.920;4.628;2023-07-29T03:50:03;17.60;99.90
15131;DHT22;7666;50.920;4.628;2023-07-29T03:52:49;17.60;99.90
15131;DHT22;7666;50.920;4.628;2023-07-29T03:55:35;17.50;99.90
15131;DHT22;7666;50.920;4.628;2023-07-29T03:58:21;17.50;99.90
15131;DHT22;7666;50.920;4.628;2023-07-29T04:01:07;17.50;99.90
15131;DHT22;7666;50.920;4.628;2023-07-29T04:03:53;17.50;99.90
15131;DHT22;7666;50.920;4.628;2023-07-29T04:06:40;17.50;99.90
15131;DHT22;7666;50.920;4.628;2023-07-29T04:09:26;17.50;99.90
15131;DHT22;7666;50.920;4.628;2023-07-29T04:12:12;17.50;99.90
15131;DHT22;7666;50.920;4.628;2023-07-29T04:14:58;17.40;99.90
15131;DHT22;7666;50.920;4.628;2023-07-29T04:17:44;17.40;99.90
15131;DHT22;7666;50.920;4.628;2023-07-29T04:20:30;17.40;99.90
15131;DHT22;7666;50.920;4.628;2023-07-29T04:23:16;17.40;99.90
15131;DHT22;7666;50.920;4.628;2023-07-29T04:26:01;17.40;99.90
15131;DHT22;7666;50.920;4.628;2023-07-29T04:28:47;17.30;99.90
15131;DHT22;7666;50.920;4.628;2023-07-29T04:31:33;17.30;99.90
15131;DHT22;7666;50.920;4.628;2023-07-29T04:34:20;17.30;99.90
15131;DHT22;7666;50.920;4.628;2023-07-29T04:37:06;17.30;99.90
15131;DHT22;7666;50.920;4.628;2023-07-29T04:39:52;17.30;99.90
15131;DHT22;7666;50.920;4.628;2023-07-29T04:42:37;17.30;99.90
15131;DHT22;7666;50.920;4.628;2023-07-29T04:45:30;17.30;99.90
15131;DHT22;7666;50.920;4.628;2023-07-29T04:48:16;17.40;99.90
15131;DHT22;7666;50.920;4.628;2023-07-29T04:51:03;17.40;99.90
15131;DHT22;7666;50.920;4.628;2023-07-29T04:53:50;17.40;99.90
15131;DHT22;7666;50.920;4.628;2023-07-29T04:56:36;17.50;99.90
15131;DHT22;7666;50.920;4.628;2023-07-29T04:59:22;17.50;99.90
15131;DHT22;7666;50.920;4.628;2023-07-29T05:02:08;17.50;99.90
15131;DHT22;7666;50.920;4.628;2023-07-29T05:04:53;17.50;99.90
15131;DHT22;7666;50.920;4.628;2023-07-29T05:07:39;17.50;99.90
15131;DHT22;7666;50.920;4.628;2023-07-29T05:10:25;17.60;99.90
15131;DHT22;7666;50.920;4.628;2023-07-29T05:13:11;17.60;99.90
15131;DHT22;7666;50.920;4.628;2023-07-29T05:15:57;17.70;99.90
15131;DHT22;7666;50.920;4.628;2023-07-29T05:18:43;17.80;99.90
15131;DHT22;7666;50.920;4.628;2023-07-29T05:21:30;18.10;99.90
15131;DHT22;7666;50.920;4.628;2023-07-29T05:24:16;18.30;99.90
15131;DHT22;7666;50.920;4.628;2023-07-29T05:27:02;18.50;99.90
15131;DHT22;7666;50.920;4.628;2023-07-29T05:29:48;18.80;99.90
15131;DHT22;7666;50.920;4.628;2023-07-29T05:32:34;19.80;99.90
15131;DHT22;7666;50.920;4.628;2023-07-29T05:35:19;21.10;99.90
15131;DHT22;7666;50.920;4.628;2023-07-29T05:38:05;21.30;99.90
15131;DHT22;7666;50.920;4.628;2023-07-29T05:40:53;20.90;99.90
15131;DHT22;7666;50.920;4.628;2023-07-29T05:43:39;20.30;99.90
15131;DHT22;7666;50.920;4.628;2023-07-29T05:46:26;20.20;99.90
15131;DHT22;7666;50.920;4.628;2023-07-29T05:49:12;19.90;99.90
15131;DHT22;7666;50.920;4.628;2023-07-29T05:51:58;19.70;99.90
15131;DHT22;7666;50.920;4.628;2023-07-29T05:54:44;19.60;99.90
15131;DHT22;7666;50.920;4.628;2023-07-29T05:57:30;19.50;99.90
15131;DHT22;7666;50.920;4.628;2023-07-29T06:00:16;19.50;99.90
15131;DHT22;7666;50.920;4.628;2023-07-29T06:03:02;19.50;99.90
15131;DHT22;7666;50.920;4.628;2023-07-29T06:05:49;19.50;99.90
15131;DHT22;7666;50.920;4.628;2023-07-29T06:08:35;19.50;99.90
15131;DHT22;7666;50.920;4.628;2023-07-29T06:11:21;19.40;99.90
15131;DHT22;7666;50.920;4.628;2023-07-29T06:14:07;19.30;99.90
15131;DHT22;7666;50.920;4.628;2023-07-29T06:16:53;19.20;99.90
15131;DHT22;7666;50.920;4.628;2023-07-29T06:19:39;19.10;99.90
15131;DHT22;7666;50.920;4.628;2023-07-29T06:22:25;19.10;99.90
15131;DHT22;7666;50.920;4.628;2023-07-29T06:25:11;19.10;99.90
15131;DHT22;7666;50.920;4.628;2023-07-29T06:27:57;19.20;99.90
15131;DHT22;7666;50.920;4.628;2023-07-29T06:30:44;19.40;99.90
15131;DHT22;7666;50.920;4.628;2023-07-29T06:33:30;20.00;99.90
15131;DHT22;7666;50.920;4.628;2023-07-29T06:36:16;20.30;99.90
15131;DHT22;7666;50.920;4.628;2023-07-29T06:39:02;20.50;99.90
15131;DHT22;7666;50.920;4.628;2023-07-29T06:41:48;20.50;99.90
15131;DHT22;7666;50.920;4.628;2023-07-29T06:44:34;20.40;99.90
15131;DHT22;7666;50.920;4.628;2023-07-29T06:47:20;20.30;99.90
15131;DHT22;7666;50.920;4.628;2023-07-29T06:50:06;20.30;99.90
15131;DHT22;7666;50.920;4.628;2023-07-29T06:52:52;20.20;99.90
15131;DHT22;7666;50.920;4.628;2023-07-29T06:55:38;20.60;99.90
15131;DHT22;7666;50.920;4.628;2023-07-29T06:58:25;21.20;99.90
15131;DHT22;7666;50.920;4.628;2023-07-29T07:01:11;21.90;99.90
15131;DHT22;7666;50.920;4.628;2023-07-29T07:03:57;22.50;99.90
15131;DHT22;7666;50.920;4.628;2023-07-29T07:06:44;22.20;99.90
15131;DHT22;7666;50.920;4.628;2023-07-29T07:09:30;21.70;99.90
15131;DHT22;7666;50.920;4.628;2023-07-29T07:12:16;21.50;99.90
15131;DHT22;7666;50.920;4.628;2023-07-29T07:15:02;21.30;99.90
15131;DHT22;7666;50.920;4.628;2023-07-29T07:17:48;21.10;99.90
15131;DHT22;7666;50.920;4.628;2023-07-29T07:20:34;21.00;99.90
15131;DHT22;7666;50.920;4.628;2023-07-29T07:23:20;20.90;99.90
15131;DHT22;7666;50.920;4.628;2023-07-29T07:26:06;20.90;99.90
15131;DHT22;7666;50.920;4.628;2023-07-29T07:28:52;20.80;99.90
15131;DHT22;7666;50.920;4.628;2023-07-29T07:31:38;20.70;99.90
15131;DHT22;7666;50.920;4.628;2023-07-29T07:34:24;20.60;99.90
15131;DHT22;7666;50.920;4.628;2023-07-29T07:37:11;20.50;99.90
15131;DHT22;7666;50.920;4.628;2023-07-29T07:39:57;20.50;99.90
15131;DHT22;7666;50.920;4.628;2023-07-29T07:42:43;20.40;99.90
15131;DHT22;7666;50.920;4.628;2023-07-29T07:45:29;20.30;99.90
15131;DHT22;7666;50.920;4.628;2023-07-29T07:48:15;20.20;99.90
15131;DHT22;7666;50.920;4.628;2023-07-29T07:51:10;20.20;99.90
15131;DHT22;7666;50.920;4.628;2023-07-29T07:53:56;20.30;99.90
15131;DHT22;7666;50.920;4.628;2023-07-29T07:56:43;20.30;99.90
15131;DHT22;7666;50.920;4.628;2023-07-29T07:59:29;20.30;99.90
15131;DHT22;7666;50.920;4.628;2023-07-29T08:02:15;20.50;99.90
15131;DHT22;7666;50.920;4.628;2023-07-29T08:05:01;20.90;99.90
15131;DHT22;7666;50.920;4.628;2023-07-29T08:07:47;21.20;99.90
15131;DHT22;7666;50.920;4.628;2023-07-29T08:10:33;21.30;99.90
15131;DHT22;7666;50.920;4.628;2023-07-29T08:13:19;21.40;99.90
15131;DHT22;7666;50.920;4.628;2023-07-29T08:16:05;21.60;99.90
15131;DHT22;7666;50.920;4.628;2023-07-29T08:18:52;21.90;99.90
15131;DHT22;7666;50.920;4.628;2023-07-29T08:21:38;22.00;99.90
15131;DHT22;7666;50.920;4.628;2023-07-29T08:24:24;21.90;99.90
15131;DHT22;7666;50.920;4.628;2023-07-29T08:27:10;21.90;99.90
15131;DHT22;7666;50.920;4.628;2023-07-29T08:29:55;21.80;99.90
15131;DHT22;7666;50.920;4.628;2023-07-29T08:32:42;22.00;99.90
15131;DHT22;7666;50.920;4.628;2023-07-29T08:35:28;22.30;99.90
15131;DHT22;7666;50.920;4.628;2023-07-29T08:38:14;22.50;99.90
15131;DHT22;7666;50.920;4.628;2023-07-29T08:41:23;22.70;99.90
15131;DHT22;7666;50.920;4.628;2023-07-29T08:44:24;22.90;99.90
15131;DHT22;7666;50.920;4.628;2023-07-29T08:47:12;23.00;99.90
15131;DHT22;7666;50.920;4.628;2023-07-29T08:50:01;23.00;99.90
15131;DHT22;7666;50.920;4.628;2023-07-29T08:52:49;23.30;99.90
15131;DHT22;7666;50.920;4.628;2023-07-29T08:55:35;23.20;99.90
15131;DHT22;7666;50.920;4.628;2023-07-29T08:58:22;23.30;99.90
15131;DHT22;7666;50.920;4.628;2023-07-29T09:01:09;23.30;99.90
15131;DHT22;7666;50.920;4.628;2023-07-29T09:03:55;23.80;99.90
15131;DHT22;7666;50.920;4.628;2023-07-29T09:06:43;24.10;99.90
15131;DHT22;7666;50.920;4.628;2023-07-29T09:09:29;24.60;99.90
15131;DHT22;7666;50.920;4.628;2023-07-29T09:12:15;24.80;99.90
15131;DHT22;7666;50.920;4.628;2023-07-29T09:15:01;24.60;99.90
15131;DHT22;7666;50.920;4.628;2023-07-29T09:17:47;24.70;99.90
15131;DHT22;7666;50.920;4.628;2023-07-29T09:20:33;24.60;99.90
15131;DHT22;7666;50.920;4.628;2023-07-29T09:23:19;24.50;99.90
15131;DHT22;7666;50.920;4.628;2023-07-29T09:26:05;24.40;99.90
15131;DHT22;7666;50.920;4.628;2023-07-29T09:28:59;24.30;99.90
15131;DHT22;7666;50.920;4.628;2023-07-29T09:31:45;24.50;99.90
15131;DHT22;7666;50.920;4.628;2023-07-29T09:34:31;24.60;99.90
15131;DHT22;7666;50.920;4.628;2023-07-29T09:37:20;24.50;99.90
15131;DHT22;7666;50.920;4.628;2023-07-29T09:40:07;24.30;99.90
15131;DHT22;7666;50.920;4.628;2023-07-29T09:42:59;24.40;99.90
15131;DHT22;7666;50.920;4.628;2023-07-29T09:45:46;24.20;99.90
15131;DHT22;7666;50.920;4.628;2023-07-29T09:48:36;24.00;99.90
15131;DHT22;7666;50.920;4.628;2023-07-29T09:51:22;23.90;99.90
15131;DHT22;7666;50.920;4.628;2023-07-29T09:54:09;23.90;99.90
15131;DHT22;7666;50.920;4.628;2023-07-29T09:56:56;24.10;99.90
15131;DHT22;7666;50.920;4.628;2023-07-29T09:59:42;23.90;99.90
15131;DHT22;7666;50.920;4.628;2023-07-29T10:02:28;23.70;99.90
15131;DHT22;7666;50.920;4.628;2023-07-29T10:05:16;23.60;99.90
15131;DHT22;7666;50.920;4.628;2023-07-29T10:08:02;23.40;99.90
15131;DHT22;7666;50.920;4.628;2023-07-29T10:10:50;23.30;99.90
15131;DHT22;7666;50.920;4.628;2023-07-29T10:13:37;23.20;99.90
15131;DHT22;7666;50.920;4.628;2023-07-29T10:16:24;23.30;99.90
15131;DHT22;7666;50.920;4.628;2023-07-29T10:19:11;23.50;99.90
15131;DHT22;7666;50.920;4.628;2023-07-29T10:22:03;23.80;99.90
15131;DHT22;7666;50.920;4.628;2023-07-29T10:24:49;23.90;99.90
15131;DHT22;7666;50.920;4.628;2023-07-29T10:28:07;24.00;99.90
15131;DHT22;7666;50.920;4.628;2023-07-29T10:30:53;24.10;99.90
15131;DHT22;7666;50.920;4.628;2023-07-29T10:33:40;24.30;99.90
15131;DHT22;7666;50.920;4.628;2023-07-29T10:36:27;24.80;99.90
15131;DHT22;7666;50.920;4.628;2023-07-29T10:39:13;25.00;99.90
15131;DHT22;7666;50.920;4.628;2023-07-29T10:42:02;24.80;99.90
15131;DHT22;7666;50.920;4.628;2023-07-29T10:44:48;24.60;99.90
15131;DHT22;7666;50.920;4.628;2023-07-29T10:47:35;24.40;99.90
15131;DHT22;7666;50.920;4.628;2023-07-29T10:50:21;24.00;99.90
15131;DHT22;7666;50.920;4.628;2023-07-29T10:53:07;23.40;99.90
15131;DHT22;7666;50.920;4.628;2023-07-29T10:55:55;23.00;99.90
15131;DHT22;7666;50.920;4.628;2023-07-29T10:58:43;22.50;99.90
15131;DHT22;7666;50.920;4.628;2023-07-29T11:01:30;22.10;99.90
15131;DHT22;7666;50.920;4.628;2023-07-29T11:12:47;21.60;99.90
15131;DHT22;7666;50.920;4.628;2023-07-29T11:15:33;21.60;99.90
15131;DHT22;7666;50.920;4.628;2023-07-29T11:18:20;21.70;99.90
15131;DHT22;7666;50.920;4.628;2023-07-29T11:21:06;21.90;99.90
15131;DHT22;7666;50.920;4.628;2023-07-29T11:23:53;22.10;99.90
15131;DHT22;7666;50.920;4.628;2023-07-29T11:26:46;22.20;99.90
15131;DHT22;7666;50.920;4.628;2023-07-29T11:29:32;22.20;99.90
15131;DHT22;7666;50.920;4.628;2023-07-29T11:32:18;22.10;99.90
15131;DHT22;7666;50.920;4.628;2023-07-29T11:35:06;22.20;99.90
15131;DHT22;7666;50.920;4.628;2023-07-29T11:37:54;22.50;99.90
15131;DHT22;7666;50.920;4.628;2023-07-29T11:40:42;22.70;99.90
15131;DHT22;7666;50.920;4.628;2023-07-29T11:43:28;22.90;99.90
15131;DHT22;7666;50.920;4.628;2023-07-29T11:46:14;23.00;99.90
15131;DHT22;7666;50.920;4.628;2023-07-29T11:49:00;23.00;99.90
15131;DHT22;7666;50.920;4.628;2023-07-29T11:51:46;23.20;99.90
15131;DHT22;7666;50.920;4.628;2023-07-29T11:54:34;23.40;99.90
15131;DHT22;7666;50.920;4.628;2023-07-29T11:57:20;23.40;99.90
15131;DHT22;7666;50.920;4.628;2023-07-29T12:00:09;23.30;99.90
15131;DHT22;7666;50.920;4.628;2023-07-29T12:02:56;23.20;99.90
15131;DHT22;7666;50.920;4.628;2023-07-29T12:05:42;23.10;99.90
15131;DHT22;7666;50.920;4.628;2023-07-29T12:08:28;23.20;99.90
15131;DHT22;7666;50.920;4.628;2023-07-29T12:11:15;23.50;99.90
15131;DHT22;7666;50.920;4.628;2023-07-29T12:14:01;24.10;99.90
15131;DHT22;7666;50.920;4.628;2023-07-29T12:16:48;24.60;99.90
15131;DHT22;7666;50.920;4.628;2023-07-29T12:19:38;24.50;99.90
15131;DHT22;7666;50.920;4.628;2023-07-29T12:22:25;24.40;99.90
15131;DHT22;7666;50.920;4.628;2023-07-29T12:25:11;24.20;99.90
15131;DHT22;7666;50.920;4.628;2023-07-29T12:28:03;23.70;99.90
15131;DHT22;7666;50.920;4.628;2023-07-29T12:30:56;23.50;99.90
15131;DHT22;7666;50.920;4.628;2023-07-29T12:33:42;23.30;99.90
15131;DHT22;7666;50.920;4.628;2023-07-29T12:36:50;22.50;99.90
15131;DHT22;7666;50.920;4.628;2023-07-29T12:39:41;21.80;99.90
15131;DHT22;7666;50.920;4.628;2023-07-29T12:42:30;21.00;99.90
15131;DHT22;7666;50.920;4.628;2023-07-29T12:45:16;20.80;99.90
15131;DHT22;7666;50.920;4.628;2023-07-29T12:48:03;20.70;99.90
15131;DHT22;7666;50.920;4.628;2023-07-29T12:50:49;20.80;99.90
15131;DHT22;7666;50.920;4.628;2023-07-29T12:53:35;21.10;99.90
15131;DHT22;7666;50.920;4.628;2023-07-29T12:56:21;21.60;99.90
15131;DHT22;7666;50.920;4.628;2023-07-29T12:59:07;22.00;99.90
15131;DHT22;7666;50.920;4.628;2023-07-29T13:01:53;22.60;99.90
15131;DHT22;7666;50.920;4.628;2023-07-29T13:04:39;23.10;99.90
15131;DHT22;7666;50.920;4.628;2023-07-29T13:07:25;23.60;99.90
15131;DHT22;7666;50.920;4.628;2023-07-29T13:10:11;24.00;99.90
15131;DHT22;7666;50.920;4.628;2023-07-29T13:12:57;23.90;99.90
15131;DHT22;7666;50.920;4.628;2023-07-29T13:15:44;24.00;99.90
15131;DHT22;7666;50.920;4.628;2023-07-29T13:18:30;24.20;99.90
15131;DHT22;7666;50.920;4.628;2023-07-29T13:21:16;24.40;99.90
15131;DHT22;7666;50.920;4.628;2023-07-29T13:24:02;24.50;99.90
15131;DHT22;7666;50.920;4.628;2023-07-29T13:26:48;24.30;99.90
15131;DHT22;7666;50.920;4.628;2023-07-29T13:29:34;24.60;99.90
15131;DHT22;7666;50.920;4.628;2023-07-29T13:32:20;24.60;99.90
15131;DHT22;7666;50.920;4.628;2023-07-29T13:35:06;24.80;99.90
15131;DHT22;7666;50.920;4.628;2023-07-29T13:37:52;25.00;99.90
15131;DHT22;7666;50.920;4.628;2023-07-29T13:40:38;24.90;99.90
15131;DHT22;7666;50.920;4.628;2023-07-29T13:43:24;24.60;99.90
15131;DHT22;7666;50.920;4.628;2023-07-29T13:46:11;24.30;99.90
15131;DHT22;7666;50.920;4.628;2023-07-29T13:48:57;24.20;99.90
15131;DHT22;7666;50.920;4.628;2023-07-29T13:51:43;24.00;99.90
15131;DHT22;7666;50.920;4.628;2023-07-29T13:54:29;23.80;99.90
15131;DHT22;7666;50.920;4.628;2023-07-29T13:57:15;23.90;99.90
15131;DHT22;7666;50.920;4.628;2023-07-29T14:00:01;24.00;99.90
15131;DHT22;7666;50.920;4.628;2023-07-29T14:02:47;24.20;99.90
15131;DHT22;7666;50.920;4.628;2023-07-29T14:05:32;24.30;99.90
15131;DHT22;7666;50.920;4.628;2023-07-29T14:08:18;24.40;99.90
15131;DHT22;7666;50.920;4.628;2023-07-29T14:11:04;24.50;99.90
15131;DHT22;7666;50.920;4.628;2023-07-29T14:13:50;24.80;99.90
15131;DHT22;7666;50.920;4.628;2023-07-29T14:16:36;24.90;99.90
15131;DHT22;7666;50.920;4.628;2023-07-29T14:19:23;24.90;99.90
15131;DHT22;7666;50.920;4.628;2023-07-29T14:22:09;24.80;99.90
15131;DHT22;7666;50.920;4.628;2023-07-29T14:24:55;24.60;99.90
15131;DHT22;7666;50.920;4.628;2023-07-29T14:27:41;24.40;99.90
15131;DHT22;7666;50.920;4.628;2023-07-29T14:30:27;24.10;99.90
15131;DHT22;7666;50.920;4.628;2023-07-29T14:33:13;24.10;99.90
15131;DHT22;7666;50.920;4.628;2023-07-29T14:36:00;24.30;99.90
15131;DHT22;7666;50.920;4.628;2023-07-29T14:38:46;24.50;99.90
15131;DHT22;7666;50.920;4.628;2023-07-29T14:41:32;24.50;99.90
15131;DHT22;7666;50.920;4.628;2023-07-29T14:44:18;24.50;99.90
15131;DHT22;7666;50.920;4.628;2023-07-29T14:47:04;24.60;99.90
15131;DHT22;7666;50.920;4.628;2023-07-29T14:49:51;24.70;99.90
15131;DHT22;7666;50.920;4.628;2023-07-29T14:52:37;24.70;99.90
15131;DHT22;7666;50.920;4.628;2023-07-29T14:55:22;24.80;99.90
15131;DHT22;7666;50.920;4.628;2023-07-29T14:58:08;24.90;99.90
15131;DHT22;7666;50.920;4.628;2023-07-29T15:00:54;24.90;99.90
15131;DHT22;7666;50.920;4.628;2023-07-29T15:03:40;25.10;99.90
15131;DHT22;7666;50.920;4.628;2023-07-29T15:06:26;25.30;99.90
15131;DHT22;7666;50.920;4.628;2023-07-29T15:09:12;24.90;99.90
15131;DHT22;7666;50.920;4.628;2023-07-29T15:11:58;24.60;99.90
15131;DHT22;7666;50.920;4.628;2023-07-29T15:14:44;24.30;99.90
15131;DHT22;7666;50.920;4.628;2023-07-29T15:17:30;23.90;99.90
15131;DHT22;7666;50.920;4.628;2023-07-29T15:20:16;23.90;99.90
15131;DHT22;7666;50.920;4.628;2023-07-29T15:23:02;24.20;99.90
15131;DHT22;7666;50.920;4.628;2023-07-29T15:25:48;24.40;99.90
15131;DHT22;7666;50.920;4.628;2023-07-29T15:28:35;24.50;99.90
15131;DHT22;7666;50.920;4.628;2023-07-29T15:31:21;24.60;99.90
15131;DHT22;7666;50.920;4.628;2023-07-29T15:34:07;24.40;99.90
15131;DHT22;7666;50.920;4.628;2023-07-29T15:36:53;24.00;99.90
15131;DHT22;7666;50.920;4.628;2023-07-29T15:39:39;24.00;99.90
15131;DHT22;7666;50.920;4.628;2023-07-29T15:42:25;23.90;99.90
15131;DHT22;7666;50.920;4.628;2023-07-29T15:45:11;23.70;99.90
15131;DHT22;7666;50.920;4.628;2023-07-29T15:47:57;23.60;99.90
15131;DHT22;7666;50.920;4.628;2023-07-29T15:50:43;23.70;99.90
15131;DHT22;7666;50.920;4.628;2023-07-29T15:53:29;23.70;99.90
15131;DHT22;7666;50.920;4.628;2023-07-29T15:56:15;23.70;99.90
15131;DHT22;7666;50.920;4.628;2023-07-29T15:59:02;23.90;99.90
15131;DHT22;7666;50.920;4.628;2023-07-29T16:01:48;23.80;99.90
15131;DHT22;7666;50.920;4.628;2023-07-29T16:04:35;23.60;99.90
15131;DHT22;7666;50.920;4.628;2023-07-29T16:07:21;23.40;99.90
15131;DHT22;7666;50.920;4.628;2023-07-29T16:10:08;23.30;99.90
15131;DHT22;7666;50.920;4.628;2023-07-29T16:12:54;23.30;99.90
15131;DHT22;7666;50.920;4.628;2023-07-29T16:15:40;23.40;99.90
15131;DHT22;7666;50.920;4.628;2023-07-29T16:18:26;23.40;99.90
15131;DHT22;7666;50.920;4.628;2023-07-29T16:21:12;23.40;99.90
15131;DHT22;7666;50.920;4.628;2023-07-29T16:23:58;23.40;99.90
15131;DHT22;7666;50.920;4.628;2023-07-29T16:26:44;23.40;99.90
15131;DHT22;7666;50.920;4.628;2023-07-29T16:29:30;23.20;99.90
15131;DHT22;7666;50.920;4.628;2023-07-29T16:32:17;23.10;99.90
15131;DHT22;7666;50.920;4.628;2023-07-29T16:35:03;23.10;99.90
15131;DHT22;7666;50.920;4.628;2023-07-29T16:37:49;23.10;99.90
15131;DHT22;7666;50.920;4.628;2023-07-29T16:40:35;23.20;99.90
15131;DHT22;7666;50.920;4.628;2023-07-29T16:43:21;23.30;99.90
15131;DHT22;7666;50.920;4.628;2023-07-29T16:46:07;23.30;99.90
15131;DHT22;7666;50.920;4.628;2023-07-29T16:48:53;23.20;99.90
15131;DHT22;7666;50.920;4.628;2023-07-29T16:51:39;23.10;99.90
15131;DHT22;7666;50.920;4.628;2023-07-29T16:54:25;23.00;99.90
15131;DHT22;7666;50.920;4.628;2023-07-29T16:57:11;22.90;99.90
15131;DHT22;7666;50.920;4.628;2023-07-29T16:59:58;23.00;99.90
15131;DHT22;7666;50.920;4.628;2023-07-29T17:02:43;23.00;99.90
15131;DHT22;7666;50.920;4.628;2023-07-29T17:05:29;23.00;99.90
15131;DHT22;7666;50.920;4.628;2023-07-29T17:08:15;23.00;99.90
15131;DHT22;7666;50.920;4.628;2023-07-29T17:11:01;23.00;99.90
15131;DHT22;7666;50.920;4.628;2023-07-29T17:13:48;23.00;99.90
15131;DHT22;7666;50.920;4.628;2023-07-29T17:16:33;23.00;99.90
15131;DHT22;7666;50.920;4.628;2023-07-29T17:19:20;23.00;99.90
15131;DHT22;7666;50.920;4.628;2023-07-29T17:22:06;23.10;99.90
15131;DHT22;7666;50.920;4.628;2023-07-29T17:24:52;23.10;99.90
15131;DHT22;7666;50.920;4.628;2023-07-29T17:27:38;23.10;99.90
15131;DHT22;7666;50.920;4.628;2023-07-29T17:30:24;23.00;99.90
15131;DHT22;7666;50.920;4.628;2023-07-29T17:33:30;22.90;99.90
15131;DHT22;7666;50.920;4.628;2023-07-29T17:36:16;22.70;99.90
15131;DHT22;7666;50.920;4.628;2023-07-29T17:39:02;22.70;99.90
15131;DHT22;7666;50.920;4.628;2023-07-29T17:41:48;22.60;99.90
15131;DHT22;7666;50.920;4.628;2023-07-29T17:44:35;22.50;99.90
15131;DHT22;7666;50.920;4.628;2023-07-29T17:47:21;22.50;99.90
15131;DHT22;7666;50.920;4.628;2023-07-29T17:50:07;22.50;99.90
15131;DHT22;7666;50.920;4.628;2023-07-29T17:52:53;22.40;99.90
15131;DHT22;7666;50.920;4.628;2023-07-29T17:55:41;22.40;99.90
15131;DHT22;7666;50.920;4.628;2023-07-29T17:58:27;22.30;99.90